Aeroporto :
LOGIN :

Iscrizione | Disclaimer

   EN    FR    IT 

 










Sommario :    VFR   VFR Marginale   IFR   IFR Intensivo   IFR Molto Intensivo
Visibilità : 
Base nubi : 
>= 8 km
>= 3000ft
5 / 8 km
1000 / 3000 ft
1500m / 5 km
500 / 1000 ft
800 / 1500m
200 / 500 ft
< 800m
< 200 ft
Simboli :   Temporali  Nebbia  Neve Forte  Precipitazioni Forti  Vento > 20 kt
SIGMETs :   Varie  Temporali  Ghiacco  Turbolenza  Onda orograficha  Ceneri Vulcaniche







- Altitudine del aeroporto : 1036 ft
- Codice IATA : ERF


EDDE - Erfurt

ULTIMO METAR :
  • 161420Z 27006KT CAVOK 19/11 Q1019 NOSIG

METARs OBSOLETI :
  • 161350Z VRB02KT CAVOK 20/10 Q1019 NOSIG
  • 161320Z 36003KT 280V040 CAVOK 20/09 Q1019 NOSIG
  • 161250Z VRB02KT CAVOK 20/09 Q1018 NOSIG
  • 161220Z VRB03KT CAVOK 21/09 Q1019 NOSIG
  • 161150Z VRB02KT CAVOK 20/10 Q1018 NOSIG

TAF TAF EDDE
Valido dal 16 a 12 ore il 17 a 12 ore UTC


161100Z 1612/1712 29008KT CAVOK
BECMG 1612/1615 23004KT
Nessun NOTAM noto per questo aeroporto.



MetMap, La meteo Aeronautica in un colpo d'occhio ! - Copyright ORBIFLY Dicembre 2007 - Disclaimer

ORBIFLY MET'MAP TEAM :

Programmazione e sviluppo : Alexandra Zaïnal
Concezione e sviluppo : Baudouin d'Aumeries
Co-Programmazione e sviluppo : Marc-Olivier Méhu
Supporto tecnico e logistico : Manuel Goepfert
Aiuto per la traduzione : Arnaldo La Scala

Contatto : metmap@orbifly.com




FONTI E CREDITI :

   NOAA